Terminal Aerodrome Forecast
Issued by NWS Wilmington, OH

Current Version | Previous Version | Graphics & Text | Print | Product List | Glossary On
Versions: 1 2 3 4 5 6 7 8 9 10 11 12 13 14 15 16 17 18 19 20 21 22 23 24 25 26 27
000
FTUS41 KILN 250318 AAA
TAFCVG
TAF AMD
KCVG 250318Z 2503/2606 28005KT P6SM -RA OVC007
     FM250600 22008KT 4SM SHRA BR OVC009
     FM250900 21009KT 5SM -SHRA OVC009
     FM251400 28007KT 5SM -SHRA OVC012
     FM251800 30010KT P6SM VCSH OVC013
     FM260400 27007KT P6SM BKN035=

USA.gov is the U.S. government's official web portal to all federal, state and local government web resources and services.